sensor_id;sensor_type;location;lat;lon;timestamp;P1;durP1;ratioP1;P2;durP2;ratioP2
76850;SDS011;65824;43.726;20.692;2023-09-07T00:01:26;10.10;;;6.13;;
76850;SDS011;65824;43.726;20.692;2023-09-07T00:03:53;12.77;;;6.63;;
76850;SDS011;65824;43.726;20.692;2023-09-07T00:06:19;14.02;;;7.20;;
76850;SDS011;65824;43.726;20.692;2023-09-07T00:08:44;10.20;;;6.50;;
76850;SDS011;65824;43.726;20.692;2023-09-07T00:11:09;9.43;;;6.68;;
76850;SDS011;65824;43.726;20.692;2023-09-07T00:13:35;11.07;;;6.45;;
76850;SDS011;65824;43.726;20.692;2023-09-07T00:16:04;11.32;;;6.38;;
76850;SDS011;65824;43.726;20.692;2023-09-07T00:18:31;9.98;;;5.88;;
76850;SDS011;65824;43.726;20.692;2023-09-07T00:21:00;10.02;;;6.47;;
76850;SDS011;65824;43.726;20.692;2023-09-07T00:23:26;14.07;;;6.85;;
76850;SDS011;65824;43.726;20.692;2023-09-07T00:25:51;10.65;;;6.93;;
76850;SDS011;65824;43.726;20.692;2023-09-07T00:28:17;9.98;;;6.57;;
76850;SDS011;65824;43.726;20.692;2023-09-07T00:30:43;10.18;;;7.05;;
76850;SDS011;65824;43.726;20.692;2023-09-07T00:33:09;10.15;;;6.68;;
76850;SDS011;65824;43.726;20.692;2023-09-07T00:35:36;9.93;;;6.53;;
76850;SDS011;65824;43.726;20.692;2023-09-07T00:38:02;12.70;;;7.03;;
76850;SDS011;65824;43.726;20.692;2023-09-07T00:40:30;10.88;;;6.60;;
76850;SDS011;65824;43.726;20.692;2023-09-07T00:42:55;11.20;;;6.97;;
76850;SDS011;65824;43.726;20.692;2023-09-07T00:45:21;9.80;;;6.28;;
76850;SDS011;65824;43.726;20.692;2023-09-07T00:47:46;11.43;;;6.70;;
76850;SDS011;65824;43.726;20.692;2023-09-07T00:50:13;10.88;;;6.55;;
76850;SDS011;65824;43.726;20.692;2023-09-07T00:52:39;16.00;;;7.20;;
76850;SDS011;65824;43.726;20.692;2023-09-07T00:55:08;12.82;;;7.43;;
76850;SDS011;65824;43.726;20.692;2023-09-07T00:57:33;11.43;;;6.80;;
76850;SDS011;65824;43.726;20.692;2023-09-07T00:59:59;10.48;;;6.38;;
76850;SDS011;65824;43.726;20.692;2023-09-07T01:02:26;10.70;;;6.13;;
76850;SDS011;65824;43.726;20.692;2023-09-07T01:04:54;10.43;;;6.63;;
76850;SDS011;65824;43.726;20.692;2023-09-07T01:07:20;10.35;;;7.50;;
76850;SDS011;65824;43.726;20.692;2023-09-07T01:09:56;17.38;;;9.80;;
76850;SDS011;65824;43.726;20.692;2023-09-07T01:12:22;14.57;;;8.27;;
76850;SDS011;65824;43.726;20.692;2023-09-07T01:14:47;13.80;;;8.30;;
76850;SDS011;65824;43.726;20.692;2023-09-07T01:17:13;12.05;;;8.27;;
76850;SDS011;65824;43.726;20.692;2023-09-07T01:19:39;13.27;;;8.52;;
76850;SDS011;65824;43.726;20.692;2023-09-07T01:22:05;14.02;;;8.50;;
76850;SDS011;65824;43.726;20.692;2023-09-07T01:24:32;11.07;;;8.10;;
76850;SDS011;65824;43.726;20.692;2023-09-07T01:26:59;13.07;;;8.65;;
76850;SDS011;65824;43.726;20.692;2023-09-07T01:29:26;11.52;;;8.32;;
76850;SDS011;65824;43.726;20.692;2023-09-07T01:31:54;11.90;;;7.80;;
76850;SDS011;65824;43.726;20.692;2023-09-07T01:34:20;10.68;;;7.40;;
76850;SDS011;65824;43.726;20.692;2023-09-07T01:36:46;10.13;;;7.07;;
76850;SDS011;65824;43.726;20.692;2023-09-07T01:39:14;10.88;;;7.07;;
76850;SDS011;65824;43.726;20.692;2023-09-07T01:41:40;10.27;;;7.20;;
76850;SDS011;65824;43.726;20.692;2023-09-07T01:44:06;10.15;;;7.13;;
76850;SDS011;65824;43.726;20.692;2023-09-07T01:46:32;11.57;;;7.70;;
76850;SDS011;65824;43.726;20.692;2023-09-07T01:48:57;14.50;;;8.35;;
76850;SDS011;65824;43.726;20.692;2023-09-07T01:51:23;12.60;;;7.47;;
76850;SDS011;65824;43.726;20.692;2023-09-07T01:53:52;13.50;;;7.80;;
76850;SDS011;65824;43.726;20.692;2023-09-07T01:56:18;12.40;;;7.68;;
76850;SDS011;65824;43.726;20.692;2023-09-07T01:58:44;11.75;;;7.43;;
76850;SDS011;65824;43.726;20.692;2023-09-07T02:01:25;10.93;;;7.05;;
76850;SDS011;65824;43.726;20.692;2023-09-07T02:03:52;11.90;;;7.15;;
76850;SDS011;65824;43.726;20.692;2023-09-07T02:06:17;12.95;;;7.45;;
76850;SDS011;65824;43.726;20.692;2023-09-07T02:08:43;10.63;;;7.22;;
76850;SDS011;65824;43.726;20.692;2023-09-07T02:11:08;12.32;;;7.13;;
76850;SDS011;65824;43.726;20.692;2023-09-07T02:13:35;10.43;;;7.05;;
76850;SDS011;65824;43.726;20.692;2023-09-07T02:16:04;10.82;;;7.13;;
76850;SDS011;65824;43.726;20.692;2023-09-07T02:18:34;12.77;;;9.02;;
76850;SDS011;65824;43.726;20.692;2023-09-07T02:21:04;11.85;;;8.40;;
76850;SDS011;65824;43.726;20.692;2023-09-07T02:23:30;20.55;;;12.32;;
76850;SDS011;65824;43.726;20.692;2023-09-07T02:25:56;27.92;;;17.30;;
76850;SDS011;65824;43.726;20.692;2023-09-07T02:28:23;22.08;;;15.60;;
76850;SDS011;65824;43.726;20.692;2023-09-07T02:30:50;21.83;;;14.48;;
76850;SDS011;65824;43.726;20.692;2023-09-07T02:33:19;18.50;;;12.73;;
76850;SDS011;65824;43.726;20.692;2023-09-07T02:35:45;19.42;;;14.02;;
76850;SDS011;65824;43.726;20.692;2023-09-07T02:38:10;14.98;;;11.15;;
76850;SDS011;65824;43.726;20.692;2023-09-07T02:40:41;15.65;;;10.35;;
76850;SDS011;65824;43.726;20.692;2023-09-07T02:43:07;14.60;;;9.80;;
76850;SDS011;65824;43.726;20.692;2023-09-07T02:45:34;14.75;;;9.93;;
76850;SDS011;65824;43.726;20.692;2023-09-07T02:47:59;16.35;;;10.00;;
76850;SDS011;65824;43.726;20.692;2023-09-07T02:50:25;18.50;;;10.30;;
76850;SDS011;65824;43.726;20.692;2023-09-07T02:52:53;19.63;;;11.40;;
76850;SDS011;65824;43.726;20.692;2023-09-07T02:55:19;18.40;;;11.90;;
76850;SDS011;65824;43.726;20.692;2023-09-07T02:57:44;17.27;;;10.60;;
76850;SDS011;65824;43.726;20.692;2023-09-07T03:00:10;15.98;;;11.00;;
76850;SDS011;65824;43.726;20.692;2023-09-07T03:02:36;21.20;;;12.98;;
76850;SDS011;65824;43.726;20.692;2023-09-07T03:05:02;19.55;;;12.90;;
76850;SDS011;65824;43.726;20.692;2023-09-07T03:07:33;21.08;;;12.88;;
76850;SDS011;65824;43.726;20.692;2023-09-07T03:09:59;22.88;;;10.93;;
76850;SDS011;65824;43.726;20.692;2023-09-07T03:12:24;16.40;;;9.93;;
76850;SDS011;65824;43.726;20.692;2023-09-07T03:14:50;13.65;;;9.13;;
76850;SDS011;65824;43.726;20.692;2023-09-07T03:17:16;19.45;;;9.15;;
76850;SDS011;65824;43.726;20.692;2023-09-07T03:19:42;15.98;;;8.13;;
76850;SDS011;65824;43.726;20.692;2023-09-07T03:22:07;15.57;;;8.48;;
76850;SDS011;65824;43.726;20.692;2023-09-07T03:24:34;11.68;;;7.97;;
76850;SDS011;65824;43.726;20.692;2023-09-07T03:27:00;11.95;;;7.43;;
76850;SDS011;65824;43.726;20.692;2023-09-07T03:29:26;10.27;;;7.43;;
76850;SDS011;65824;43.726;20.692;2023-09-07T03:31:52;12.55;;;7.63;;
76850;SDS011;65824;43.726;20.692;2023-09-07T03:34:17;12.90;;;7.72;;
76850;SDS011;65824;43.726;20.692;2023-09-07T03:36:43;13.27;;;7.40;;
76850;SDS011;65824;43.726;20.692;2023-09-07T03:39:08;11.40;;;7.45;;
76850;SDS011;65824;43.726;20.692;2023-09-07T03:41:35;13.07;;;7.55;;
76850;SDS011;65824;43.726;20.692;2023-09-07T03:44:00;13.43;;;7.22;;
76850;SDS011;65824;43.726;20.692;2023-09-07T03:46:26;10.25;;;6.75;;
76850;SDS011;65824;43.726;20.692;2023-09-07T03:48:51;10.35;;;6.88;;
76850;SDS011;65824;43.726;20.692;2023-09-07T03:51:17;11.82;;;6.80;;
76850;SDS011;65824;43.726;20.692;2023-09-07T03:53:43;11.95;;;6.88;;
76850;SDS011;65824;43.726;20.692;2023-09-07T03:56:08;12.80;;;6.78;;
76850;SDS011;65824;43.726;20.692;2023-09-07T03:58:34;10.85;;;6.95;;
76850;SDS011;65824;43.726;20.692;2023-09-07T04:00:59;12.73;;;6.82;;
76850;SDS011;65824;43.726;20.692;2023-09-07T04:03:25;12.75;;;6.97;;
76850;SDS011;65824;43.726;20.692;2023-09-07T04:05:50;11.82;;;7.15;;
76850;SDS011;65824;43.726;20.692;2023-09-07T04:08:16;11.27;;;6.93;;
76850;SDS011;65824;43.726;20.692;2023-09-07T04:10:41;13.45;;;7.55;;
76850;SDS011;65824;43.726;20.692;2023-09-07T04:13:07;11.93;;;7.72;;
76850;SDS011;65824;43.726;20.692;2023-09-07T04:15:45;12.57;;;7.30;;
76850;SDS011;65824;43.726;20.692;2023-09-07T04:18:11;13.93;;;7.97;;
76850;SDS011;65824;43.726;20.692;2023-09-07T04:20:41;12.95;;;7.60;;
76850;SDS011;65824;43.726;20.692;2023-09-07T04:23:06;17.45;;;7.85;;
76850;SDS011;65824;43.726;20.692;2023-09-07T04:25:32;12.55;;;7.45;;
76850;SDS011;65824;43.726;20.692;2023-09-07T04:27:59;13.63;;;7.28;;
76850;SDS011;65824;43.726;20.692;2023-09-07T04:30:25;13.60;;;8.05;;
76850;SDS011;65824;43.726;20.692;2023-09-07T04:32:50;12.93;;;7.63;;
76850;SDS011;65824;43.726;20.692;2023-09-07T04:35:16;13.27;;;7.78;;
76850;SDS011;65824;43.726;20.692;2023-09-07T04:37:42;14.20;;;7.78;;
76850;SDS011;65824;43.726;20.692;2023-09-07T04:40:08;13.02;;;7.57;;
76850;SDS011;65824;43.726;20.692;2023-09-07T04:42:34;12.90;;;7.90;;
76850;SDS011;65824;43.726;20.692;2023-09-07T04:45:03;15.65;;;7.78;;
76850;SDS011;65824;43.726;20.692;2023-09-07T04:47:29;12.82;;;7.68;;
76850;SDS011;65824;43.726;20.692;2023-09-07T04:49:55;12.40;;;8.15;;
76850;SDS011;65824;43.726;20.692;2023-09-07T04:52:20;14.50;;;8.00;;
76850;SDS011;65824;43.726;20.692;2023-09-07T04:54:46;15.52;;;8.50;;
76850;SDS011;65824;43.726;20.692;2023-09-07T04:57:13;13.35;;;8.07;;
76850;SDS011;65824;43.726;20.692;2023-09-07T04:59:40;15.55;;;8.55;;
76850;SDS011;65824;43.726;20.692;2023-09-07T05:02:06;16.30;;;8.25;;
76850;SDS011;65824;43.726;20.692;2023-09-07T05:04:31;17.70;;;8.88;;
76850;SDS011;65824;43.726;20.692;2023-09-07T05:06:57;14.10;;;8.40;;
76850;SDS011;65824;43.726;20.692;2023-09-07T05:09:23;15.73;;;8.40;;
76850;SDS011;65824;43.726;20.692;2023-09-07T05:11:51;16.70;;;8.85;;
76850;SDS011;65824;43.726;20.692;2023-09-07T05:14:19;14.48;;;8.27;;
76850;SDS011;65824;43.726;20.692;2023-09-07T05:16:44;17.92;;;9.15;;
76850;SDS011;65824;43.726;20.692;2023-09-07T05:19:10;15.98;;;9.60;;
76850;SDS011;65824;43.726;20.692;2023-09-07T05:21:35;16.92;;;9.48;;
76850;SDS011;65824;43.726;20.692;2023-09-07T05:24:00;15.55;;;8.80;;
76850;SDS011;65824;43.726;20.692;2023-09-07T05:26:26;17.35;;;9.20;;
76850;SDS011;65824;43.726;20.692;2023-09-07T05:28:51;15.52;;;9.25;;
76850;SDS011;65824;43.726;20.692;2023-09-07T05:31:17;19.00;;;8.27;;
76850;SDS011;65824;43.726;20.692;2023-09-07T05:33:43;17.75;;;8.90;;
76850;SDS011;65824;43.726;20.692;2023-09-07T05:36:09;13.88;;;8.15;;
76850;SDS011;65824;43.726;20.692;2023-09-07T05:38:34;14.23;;;8.38;;
76850;SDS011;65824;43.726;20.692;2023-09-07T05:41:00;13.70;;;9.13;;
76850;SDS011;65824;43.726;20.692;2023-09-07T05:43:25;14.70;;;8.40;;
76850;SDS011;65824;43.726;20.692;2023-09-07T05:45:54;15.02;;;8.68;;
76850;SDS011;65824;43.726;20.692;2023-09-07T05:48:19;16.52;;;8.85;;
76850;SDS011;65824;43.726;20.692;2023-09-07T05:50:45;17.15;;;9.38;;
76850;SDS011;65824;43.726;20.692;2023-09-07T05:53:11;18.17;;;9.50;;
76850;SDS011;65824;43.726;20.692;2023-09-07T05:55:40;17.58;;;9.07;;
76850;SDS011;65824;43.726;20.692;2023-09-07T05:58:06;19.98;;;11.63;;
76850;SDS011;65824;43.726;20.692;2023-09-07T06:00:32;19.83;;;11.55;;
76850;SDS011;65824;43.726;20.692;2023-09-07T06:03:00;21.75;;;12.60;;
76850;SDS011;65824;43.726;20.692;2023-09-07T06:05:27;19.02;;;11.52;;
76850;SDS011;65824;43.726;20.692;2023-09-07T06:07:52;22.60;;;11.52;;
76850;SDS011;65824;43.726;20.692;2023-09-07T06:10:18;19.70;;;10.00;;
76850;SDS011;65824;43.726;20.692;2023-09-07T06:12:44;17.20;;;9.82;;
76850;SDS011;65824;43.726;20.692;2023-09-07T06:15:10;17.85;;;11.15;;
76850;SDS011;65824;43.726;20.692;2023-09-07T06:17:35;14.88;;;10.02;;
76850;SDS011;65824;43.726;20.692;2023-09-07T06:20:01;17.23;;;10.23;;
76850;SDS011;65824;43.726;20.692;2023-09-07T06:22:28;16.17;;;9.32;;
76850;SDS011;65824;43.726;20.692;2023-09-07T06:24:53;16.65;;;10.27;;
76850;SDS011;65824;43.726;20.692;2023-09-07T06:27:20;14.93;;;9.23;;
76850;SDS011;65824;43.726;20.692;2023-09-07T06:29:45;15.55;;;9.75;;
76850;SDS011;65824;43.726;20.692;2023-09-07T06:32:11;15.25;;;10.18;;
76850;SDS011;65824;43.726;20.692;2023-09-07T06:34:37;17.95;;;10.90;;
76850;SDS011;65824;43.726;20.692;2023-09-07T06:37:02;22.50;;;11.55;;
76850;SDS011;65824;43.726;20.692;2023-09-07T06:39:29;17.17;;;11.63;;
76850;SDS011;65824;43.726;20.692;2023-09-07T06:41:54;16.67;;;11.32;;
76850;SDS011;65824;43.726;20.692;2023-09-07T06:44:20;14.40;;;10.23;;
76850;SDS011;65824;43.726;20.692;2023-09-07T06:46:46;18.48;;;10.63;;
76850;SDS011;65824;43.726;20.692;2023-09-07T06:49:12;14.32;;;9.55;;
76850;SDS011;65824;43.726;20.692;2023-09-07T06:51:37;14.43;;;10.10;;
76850;SDS011;65824;43.726;20.692;2023-09-07T06:54:03;14.80;;;9.85;;
76850;SDS011;65824;43.726;20.692;2023-09-07T06:56:28;18.98;;;10.25;;
76850;SDS011;65824;43.726;20.692;2023-09-07T06:58:56;17.48;;;9.85;;
76850;SDS011;65824;43.726;20.692;2023-09-07T07:01:21;15.60;;;9.18;;
76850;SDS011;65824;43.726;20.692;2023-09-07T07:03:47;17.10;;;10.00;;
76850;SDS011;65824;43.726;20.692;2023-09-07T07:06:12;17.63;;;9.77;;
76850;SDS011;65824;43.726;20.692;2023-09-07T07:08:39;15.32;;;10.23;;
76850;SDS011;65824;43.726;20.692;2023-09-07T07:11:13;20.10;;;11.02;;
76850;SDS011;65824;43.726;20.692;2023-09-07T07:13:38;17.48;;;10.45;;
76850;SDS011;65824;43.726;20.692;2023-09-07T07:16:04;17.55;;;10.07;;
76850;SDS011;65824;43.726;20.692;2023-09-07T07:18:29;15.35;;;9.38;;
76850;SDS011;65824;43.726;20.692;2023-09-07T07:20:56;14.82;;;9.90;;
76850;SDS011;65824;43.726;20.692;2023-09-07T07:23:21;17.92;;;10.07;;
76850;SDS011;65824;43.726;20.692;2023-09-07T07:25:47;16.25;;;9.23;;
76850;SDS011;65824;43.726;20.692;2023-09-07T07:28:12;18.88;;;9.63;;
76850;SDS011;65824;43.726;20.692;2023-09-07T07:30:38;16.88;;;10.00;;
76850;SDS011;65824;43.726;20.692;2023-09-07T07:33:07;13.90;;;9.50;;
76850;SDS011;65824;43.726;20.692;2023-09-07T07:35:34;15.75;;;10.10;;
76850;SDS011;65824;43.726;20.692;2023-09-07T07:38:02;16.60;;;10.35;;
76850;SDS011;65824;43.726;20.692;2023-09-07T07:40:30;15.45;;;10.93;;
76850;SDS011;65824;43.726;20.692;2023-09-07T07:43:14;26.55;;;12.02;;
76850;SDS011;65824;43.726;20.692;2023-09-07T07:45:40;17.38;;;11.98;;
76850;SDS011;65824;43.726;20.692;2023-09-07T07:48:05;20.30;;;12.30;;
76850;SDS011;65824;43.726;20.692;2023-09-07T07:50:35;19.08;;;12.95;;
76850;SDS011;65824;43.726;20.692;2023-09-07T07:53:03;20.35;;;12.73;;
76850;SDS011;65824;43.726;20.692;2023-09-07T07:55:33;19.88;;;12.35;;
76850;SDS011;65824;43.726;20.692;2023-09-07T07:58:07;18.00;;;11.90;;
76850;SDS011;65824;43.726;20.692;2023-09-07T08:00:33;22.92;;;13.20;;
76850;SDS011;65824;43.726;20.692;2023-09-07T08:03:03;20.67;;;12.68;;
76850;SDS011;65824;43.726;20.692;2023-09-07T08:05:31;19.70;;;13.25;;
76850;SDS011;65824;43.726;20.692;2023-09-07T08:07:56;21.00;;;12.25;;
76850;SDS011;65824;43.726;20.692;2023-09-07T08:10:22;25.02;;;12.95;;
76850;SDS011;65824;43.726;20.692;2023-09-07T08:12:48;19.73;;;11.07;;
76850;SDS011;65824;43.726;20.692;2023-09-07T08:15:18;17.83;;;11.43;;
76850;SDS011;65824;43.726;20.692;2023-09-07T08:17:46;17.92;;;11.30;;
76850;SDS011;65824;43.726;20.692;2023-09-07T08:20:14;21.58;;;11.32;;
76850;SDS011;65824;43.726;20.692;2023-09-07T08:22:40;15.30;;;9.95;;
76850;SDS011;65824;43.726;20.692;2023-09-07T08:25:07;15.77;;;9.00;;
76850;SDS011;65824;43.726;20.692;2023-09-07T08:27:35;13.10;;;8.07;;
76850;SDS011;65824;43.726;20.692;2023-09-07T08:30:00;15.43;;;8.75;;
76850;SDS011;65824;43.726;20.692;2023-09-07T08:32:26;14.23;;;9.55;;
76850;SDS011;65824;43.726;20.692;2023-09-07T08:34:51;12.68;;;8.15;;
76850;SDS011;65824;43.726;20.692;2023-09-07T08:37:21;12.77;;;8.32;;
76850;SDS011;65824;43.726;20.692;2023-09-07T08:39:48;15.05;;;9.48;;
76850;SDS011;65824;43.726;20.692;2023-09-07T08:42:13;14.80;;;9.57;;
76850;SDS011;65824;43.726;20.692;2023-09-07T08:44:39;13.10;;;7.82;;
76850;SDS011;65824;43.726;20.692;2023-09-07T08:47:07;14.35;;;7.55;;
76850;SDS011;65824;43.726;20.692;2023-09-07T08:49:33;12.13;;;7.53;;
76850;SDS011;65824;43.726;20.692;2023-09-07T08:51:59;14.73;;;6.93;;
76850;SDS011;65824;43.726;20.692;2023-09-07T08:54:28;14.95;;;6.97;;
76850;SDS011;65824;43.726;20.692;2023-09-07T08:56:53;10.32;;;5.97;;
76850;SDS011;65824;43.726;20.692;2023-09-07T08:59:22;9.65;;;5.80;;
76850;SDS011;65824;43.726;20.692;2023-09-07T09:01:48;9.32;;;5.50;;
76850;SDS011;65824;43.726;20.692;2023-09-07T09:04:15;6.90;;;4.45;;
76850;SDS011;65824;43.726;20.692;2023-09-07T09:06:41;10.20;;;5.57;;
76850;SDS011;65824;43.726;20.692;2023-09-07T09:09:06;9.98;;;5.13;;
76850;SDS011;65824;43.726;20.692;2023-09-07T09:11:32;9.18;;;5.60;;
76850;SDS011;65824;43.726;20.692;2023-09-07T09:13:57;11.48;;;5.63;;
76850;SDS011;65824;43.726;20.692;2023-09-07T09:16:23;9.95;;;5.43;;
76850;SDS011;65824;43.726;20.692;2023-09-07T09:21:18;8.02;;;5.03;;
76850;SDS011;65824;43.726;20.692;2023-09-07T09:23:46;9.45;;;5.40;;
76850;SDS011;65824;43.726;20.692;2023-09-07T09:26:17;9.80;;;5.70;;
76850;SDS011;65824;43.726;20.692;2023-09-07T09:28:45;10.43;;;5.32;;
76850;SDS011;65824;43.726;20.692;2023-09-07T09:31:11;8.57;;;5.40;;
76850;SDS011;65824;43.726;20.692;2023-09-07T09:33:39;8.48;;;5.40;;
76850;SDS011;65824;43.726;20.692;2023-09-07T09:36:06;9.70;;;5.35;;
76850;SDS011;65824;43.726;20.692;2023-09-07T09:38:32;8.38;;;4.80;;
76850;SDS011;65824;43.726;20.692;2023-09-07T09:40:59;10.23;;;6.15;;
76850;SDS011;65824;43.726;20.692;2023-09-07T09:43:25;9.15;;;5.38;;
76850;SDS011;65824;43.726;20.692;2023-09-07T09:45:51;9.88;;;5.38;;
76850;SDS011;65824;43.726;20.692;2023-09-07T09:48:18;9.82;;;5.60;;
76850;SDS011;65824;43.726;20.692;2023-09-07T09:50:48;9.63;;;6.05;;
76850;SDS011;65824;43.726;20.692;2023-09-07T09:53:17;9.85;;;5.72;;
76850;SDS011;65824;43.726;20.692;2023-09-07T09:55:48;9.50;;;5.93;;
76850;SDS011;65824;43.726;20.692;2023-09-07T09:58:14;10.05;;;5.45;;
76850;SDS011;65824;43.726;20.692;2023-09-07T10:00:45;10.98;;;5.63;;
76850;SDS011;65824;43.726;20.692;2023-09-07T10:06:20;9.15;;;5.53;;
76850;SDS011;65824;43.726;20.692;2023-09-07T10:08:55;9.13;;;5.78;;
76850;SDS011;65824;43.726;20.692;2023-09-07T10:11:31;10.35;;;5.88;;
76850;SDS011;65824;43.726;20.692;2023-09-07T10:13:58;12.95;;;6.07;;
76850;SDS011;65824;43.726;20.692;2023-09-07T10:16:25;9.25;;;5.53;;
76850;SDS011;65824;43.726;20.692;2023-09-07T10:18:52;13.35;;;5.70;;
76850;SDS011;65824;43.726;20.692;2023-09-07T10:21:18;7.95;;;4.90;;
76850;SDS011;65824;43.726;20.692;2023-09-07T10:23:44;8.23;;;4.57;;
76850;SDS011;65824;43.726;20.692;2023-09-07T10:26:15;8.77;;;4.63;;
76850;SDS011;65824;43.726;20.692;2023-09-07T10:28:44;8.48;;;5.00;;
76850;SDS011;65824;43.726;20.692;2023-09-07T10:33:43;7.70;;;4.85;;
76850;SDS011;65824;43.726;20.692;2023-09-07T10:36:23;8.35;;;4.50;;
76850;SDS011;65824;43.726;20.692;2023-09-07T10:38:53;9.80;;;4.70;;
76850;SDS011;65824;43.726;20.692;2023-09-07T10:41:19;8.68;;;4.70;;
76850;SDS011;65824;43.726;20.692;2023-09-07T10:43:54;11.20;;;5.18;;
76850;SDS011;65824;43.726;20.692;2023-09-07T10:46:21;9.18;;;5.75;;
76850;SDS011;65824;43.726;20.692;2023-09-07T10:48:51;9.38;;;5.55;;
76850;SDS011;65824;43.726;20.692;2023-09-07T10:51:20;11.70;;;5.90;;
76850;SDS011;65824;43.726;20.692;2023-09-07T10:53:46;8.00;;;4.88;;
76850;SDS011;65824;43.726;20.692;2023-09-07T10:56:11;9.32;;;5.03;;
76850;SDS011;65824;43.726;20.692;2023-09-07T10:58:38;8.25;;;4.90;;
76850;SDS011;65824;43.726;20.692;2023-09-07T11:01:06;7.47;;;4.70;;
76850;SDS011;65824;43.726;20.692;2023-09-07T11:03:33;8.45;;;5.22;;
76850;SDS011;65824;43.726;20.692;2023-09-07T11:06:12;10.63;;;5.13;;
76850;SDS011;65824;43.726;20.692;2023-09-07T11:08:41;8.85;;;4.82;;
76850;SDS011;65824;43.726;20.692;2023-09-07T11:11:11;8.45;;;5.13;;
76850;SDS011;65824;43.726;20.692;2023-09-07T11:13:37;7.35;;;4.70;;
76850;SDS011;65824;43.726;20.692;2023-09-07T11:16:06;9.52;;;4.70;;
76850;SDS011;65824;43.726;20.692;2023-09-07T11:18:34;8.85;;;5.13;;
76850;SDS011;65824;43.726;20.692;2023-09-07T11:21:02;9.57;;;4.55;;
76850;SDS011;65824;43.726;20.692;2023-09-07T11:23:29;9.73;;;4.60;;
76850;SDS011;65824;43.726;20.692;2023-09-07T11:26:03;7.40;;;4.57;;
76850;SDS011;65824;43.726;20.692;2023-09-07T11:28:29;9.88;;;4.95;;
76850;SDS011;65824;43.726;20.692;2023-09-07T11:30:57;6.90;;;5.00;;
76850;SDS011;65824;43.726;20.692;2023-09-07T11:33:23;10.50;;;4.70;;
76850;SDS011;65824;43.726;20.692;2023-09-07T11:35:49;9.15;;;4.43;;
76850;SDS011;65824;43.726;20.692;2023-09-07T11:38:15;7.95;;;4.72;;
76850;SDS011;65824;43.726;20.692;2023-09-07T11:40:41;7.22;;;4.68;;
76850;SDS011;65824;43.726;20.692;2023-09-07T11:43:13;7.35;;;4.70;;
76850;SDS011;65824;43.726;20.692;2023-09-07T11:45:40;9.10;;;5.53;;
76850;SDS011;65824;43.726;20.692;2023-09-07T11:48:06;7.82;;;4.55;;
76850;SDS011;65824;43.726;20.692;2023-09-07T11:50:34;9.38;;;4.97;;
76850;SDS011;65824;43.726;20.692;2023-09-07T11:53:00;9.23;;;4.75;;
76850;SDS011;65824;43.726;20.692;2023-09-07T11:55:25;7.13;;;4.85;;
76850;SDS011;65824;43.726;20.692;2023-09-07T11:57:51;8.05;;;5.20;;
76850;SDS011;65824;43.726;20.692;2023-09-07T12:00:17;9.30;;;4.88;;
76850;SDS011;65824;43.726;20.692;2023-09-07T12:02:44;8.93;;;4.78;;
76850;SDS011;65824;43.726;20.692;2023-09-07T12:05:09;9.90;;;5.28;;
76850;SDS011;65824;43.726;20.692;2023-09-07T12:07:40;9.75;;;4.88;;
76850;SDS011;65824;43.726;20.692;2023-09-07T12:10:08;7.57;;;5.03;;
76850;SDS011;65824;43.726;20.692;2023-09-07T12:12:36;8.80;;;4.70;;
76850;SDS011;65824;43.726;20.692;2023-09-07T12:15:05;8.77;;;4.95;;
76850;SDS011;65824;43.726;20.692;2023-09-07T12:17:31;9.25;;;5.10;;
76850;SDS011;65824;43.726;20.692;2023-09-07T12:19:57;8.50;;;5.43;;
76850;SDS011;65824;43.726;20.692;2023-09-07T12:22:23;7.50;;;4.78;;
76850;SDS011;65824;43.726;20.692;2023-09-07T12:24:48;10.73;;;5.13;;
76850;SDS011;65824;43.726;20.692;2023-09-07T12:27:14;8.75;;;4.63;;
76850;SDS011;65824;43.726;20.692;2023-09-07T12:29:39;9.05;;;4.93;;
76850;SDS011;65824;43.726;20.692;2023-09-07T12:32:05;8.55;;;4.63;;
76850;SDS011;65824;43.726;20.692;2023-09-07T12:34:31;10.30;;;4.90;;
76850;SDS011;65824;43.726;20.692;2023-09-07T12:36:58;9.07;;;5.63;;
76850;SDS011;65824;43.726;20.692;2023-09-07T12:39:23;9.18;;;5.47;;
76850;SDS011;65824;43.726;20.692;2023-09-07T12:41:51;10.63;;;5.03;;
76850;SDS011;65824;43.726;20.692;2023-09-07T12:44:17;9.25;;;5.22;;
76850;SDS011;65824;43.726;20.692;2023-09-07T12:46:43;8.68;;;4.50;;
76850;SDS011;65824;43.726;20.692;2023-09-07T12:49:10;7.13;;;4.93;;
76850;SDS011;65824;43.726;20.692;2023-09-07T12:51:35;6.53;;;4.60;;
76850;SDS011;65824;43.726;20.692;2023-09-07T12:54:01;7.38;;;5.00;;
76850;SDS011;65824;43.726;20.692;2023-09-07T12:56:26;9.27;;;5.00;;
76850;SDS011;65824;43.726;20.692;2023-09-07T12:58:56;8.13;;;4.50;;
76850;SDS011;65824;43.726;20.692;2023-09-07T13:01:24;9.00;;;4.55;;
76850;SDS011;65824;43.726;20.692;2023-09-07T13:03:50;8.63;;;4.90;;
76850;SDS011;65824;43.726;20.692;2023-09-07T13:06:15;7.47;;;4.15;;
76850;SDS011;65824;43.726;20.692;2023-09-07T13:08:42;7.78;;;4.78;;
76850;SDS011;65824;43.726;20.692;2023-09-07T13:11:11;10.88;;;4.82;;
76850;SDS011;65824;43.726;20.692;2023-09-07T13:13:36;6.85;;;4.57;;
76850;SDS011;65824;43.726;20.692;2023-09-07T13:16:03;7.63;;;4.32;;
76850;SDS011;65824;43.726;20.692;2023-09-07T13:18:29;6.07;;;4.00;;
76850;SDS011;65824;43.726;20.692;2023-09-07T13:20:54;7.85;;;4.35;;
76850;SDS011;65824;43.726;20.692;2023-09-07T13:23:27;7.88;;;4.80;;
76850;SDS011;65824;43.726;20.692;2023-09-07T13:26:02;6.90;;;4.70;;
76850;SDS011;65824;43.726;20.692;2023-09-07T13:28:29;7.63;;;3.95;;
76850;SDS011;65824;43.726;20.692;2023-09-07T13:30:54;7.35;;;3.65;;
76850;SDS011;65824;43.726;20.692;2023-09-07T13:33:20;7.78;;;3.75;;
76850;SDS011;65824;43.726;20.692;2023-09-07T13:35:47;7.68;;;4.00;;
76850;SDS011;65824;43.726;20.692;2023-09-07T13:38:12;9.00;;;3.88;;
76850;SDS011;65824;43.726;20.692;2023-09-07T13:40:38;6.13;;;3.95;;
76850;SDS011;65824;43.726;20.692;2023-09-07T13:43:04;7.53;;;3.85;;
76850;SDS011;65824;43.726;20.692;2023-09-07T13:45:32;6.88;;;3.85;;
76850;SDS011;65824;43.726;20.692;2023-09-07T13:47:58;9.20;;;4.10;;
76850;SDS011;65824;43.726;20.692;2023-09-07T13:50:24;6.35;;;3.58;;
76850;SDS011;65824;43.726;20.692;2023-09-07T13:52:51;6.90;;;3.92;;
76850;SDS011;65824;43.726;20.692;2023-09-07T13:55:16;9.68;;;4.13;;
76850;SDS011;65824;43.726;20.692;2023-09-07T13:57:43;6.88;;;4.03;;
76850;SDS011;65824;43.726;20.692;2023-09-07T14:00:08;8.27;;;4.15;;
76850;SDS011;65824;43.726;20.692;2023-09-07T14:02:34;8.00;;;4.18;;
76850;SDS011;65824;43.726;20.692;2023-09-07T14:04:59;7.45;;;4.00;;
76850;SDS011;65824;43.726;20.692;2023-09-07T14:07:25;9.05;;;3.88;;
76850;SDS011;65824;43.726;20.692;2023-09-07T14:09:51;6.13;;;3.72;;
76850;SDS011;65824;43.726;20.692;2023-09-07T14:12:17;6.35;;;3.70;;
76850;SDS011;65824;43.726;20.692;2023-09-07T14:14:42;7.72;;;3.92;;
76850;SDS011;65824;43.726;20.692;2023-09-07T14:17:08;6.22;;;3.78;;
76850;SDS011;65824;43.726;20.692;2023-09-07T14:19:33;6.20;;;3.97;;
76850;SDS011;65824;43.726;20.692;2023-09-07T14:21:59;6.28;;;3.80;;
76850;SDS011;65824;43.726;20.692;2023-09-07T14:24:26;6.40;;;4.13;;
76850;SDS011;65824;43.726;20.692;2023-09-07T14:26:51;5.95;;;3.65;;
76850;SDS011;65824;43.726;20.692;2023-09-07T14:29:17;8.20;;;4.00;;